Time;durP1;ratioP1;P1;durP2;ratioP2;P2;SDS_P1;SDS_P2;PMS_P1;PMS_P2;Temp;Humidity;BMP_temperature;BMP_pressure;BME280_temperature;BME280_humidity;BME280_pressure;Samples;Min_cycle;Max_cycle;Signal;HPM_P1;HPM_P2
2022/07/31 00:00:30;;;;;;;4.03;0.90;;;12.80;99.90;;;;;;5055852;28;20473;-72
2022/07/31 00:02:58;;;;;;;3.65;0.93;;;12.90;99.90;;;;;;5073878;28;20485;-71
2022/07/31 00:05:26;;;;;;;3.10;1.20;;;13.00;99.90;;;;;;5073692;28;20021;-72
2022/07/31 00:07:55;;;;;;;2.15;1.00;;;13.10;99.90;;;;;;5073766;28;20036;-72
2022/07/31 00:10:23;;;;;;;2.63;0.88;;;13.10;99.90;;;;;;5056339;28;20028;-71
2022/07/31 00:12:50;;;;;;;2.70;1.00;;;13.20;99.90;;;;;;5072272;28;20017;-71
2022/07/31 00:15:19;;;;;;;2.15;0.70;;;13.40;99.90;;;;;;5072865;28;20085;-72
2022/07/31 00:17:47;;;;;;;2.80;0.65;;;13.50;99.90;;;;;;5073564;28;20508;-72
2022/07/31 00:20:16;;;;;;;1.95;0.60;;;13.70;99.90;;;;;;5072119;28;20026;-71
2022/07/31 00:22:45;;;;;;;2.80;1.05;;;13.70;99.90;;;;;;5073389;28;20690;-72
2022/07/31 00:25:14;;;;;;;2.92;0.85;;;13.90;99.90;;;;;;5073350;28;20070;-72
2022/07/31 00:27:41;;;;;;;4.80;1.20;;;14.00;99.90;;;;;;5072073;28;20017;-72
2022/07/31 00:30:15;;;;;;;1.58;0.98;;;14.10;99.90;;;;;;5072085;28;20052;-72
2022/07/31 00:32:43;;;;;;;3.35;1.13;;;14.20;99.90;;;;;;5073480;28;20532;-71
2022/07/31 00:35:14;;;;;;;3.72;0.90;;;14.20;99.90;;;;;;5073339;28;20094;-71
2022/07/31 00:37:44;;;;;;;2.25;0.80;;;14.30;99.90;;;;;;5072287;28;20039;-73
2022/07/31 00:40:14;;;;;;;2.22;0.95;;;14.40;99.90;;;;;;5073507;28;20024;-73
2022/07/31 00:42:42;;;;;;;3.90;1.60;;;14.50;99.90;;;;;;5071269;28;20037;-72
2022/07/31 00:45:11;;;;;;;5.43;1.38;;;14.50;99.90;;;;;;5072258;28;20075;-71
2022/07/31 00:47:38;;;;;;;4.50;1.10;;;14.70;99.90;;;;;;5071980;28;20028;-73
2022/07/31 00:50:06;;;;;;;2.97;0.63;;;14.80;99.90;;;;;;5071936;28;20020;-72
2022/07/31 00:52:33;;;;;;;3.22;0.80;;;14.80;99.90;;;;;;5072756;28;20041;-72
2022/07/31 00:55:01;;;;;;;1.58;0.80;;;14.90;99.90;;;;;;5072971;28;20036;-72
2022/07/31 00:57:28;;;;;;;2.35;0.68;;;14.90;99.90;;;;;;5071660;28;20035;-73
2022/07/31 00:59:56;;;;;;;3.08;0.50;;;15.00;99.90;;;;;;5073480;28;20016;-71
2022/07/31 01:02:23;;;;;;;2.85;0.90;;;15.20;99.90;;;;;;5072987;28;20021;-71
2022/07/31 01:04:50;;;;;;;2.17;0.70;;;15.20;99.90;;;;;;5071556;28;20389;-72
2022/07/31 01:07:18;;;;;;;1.92;0.90;;;15.20;99.90;;;;;;5071647;28;20025;-72
2022/07/31 01:09:48;;;;;;;2.00;0.77;;;15.30;99.90;;;;;;5071581;28;20025;-72
2022/07/31 01:12:33;;;;;;;2.42;0.80;;;15.50;99.90;;;;;;5073122;28;20032;-72
2022/07/31 01:15:06;;;;;;;4.43;1.00;;;15.60;99.90;;;;;;5071882;28;20033;-74
2022/07/31 01:17:35;;;;;;;4.90;0.90;;;15.70;99.90;;;;;;5071618;28;20052;-72
2022/07/31 01:20:04;;;;;;;2.53;0.73;;;15.80;99.90;;;;;;5071537;28;20029;-74
2022/07/31 01:22:56;;;;;;;3.40;1.02;;;15.90;99.90;;;;;;5072660;28;20013;-73
2022/07/31 01:25:45;;;;;;;2.22;0.85;;;15.80;99.90;;;;;;5071957;28;20032;-73
2022/07/31 01:28:48;;;;;;;2.55;0.70;;;15.90;99.90;;;;;;5077027;28;20113;-72
2022/07/31 01:31:22;;;;;;;3.03;0.70;;;15.90;99.90;;;;;;5077111;28;20031;-73
2022/07/31 01:34:15;;;;;;;1.38;0.60;;;16.20;99.90;;;;;;5076616;28;20388;-73
2022/07/31 01:36:48;;;;;;;1.70;0.73;;;16.40;99.90;;;;;;5075551;28;20066;-72
2022/07/31 01:39:17;;;;;;;3.15;0.70;;;16.40;99.90;;;;;;5076807;28;20033;-72
2022/07/31 01:41:49;;;;;;;2.22;0.88;;;16.40;99.90;;;;;;5076806;28;20031;-72
2022/07/31 01:44:18;;;;;;;2.13;0.90;;;16.60;99.90;;;;;;5058594;28;20041;-72
2022/07/31 01:46:47;;;;;;;4.55;1.20;;;16.80;99.90;;;;;;5076551;28;20099;-71
2022/07/31 01:49:15;;;;;;;1.80;0.80;;;16.90;99.90;;;;;;5076331;28;20024;-72
2022/07/31 01:51:47;;;;;;;2.90;0.80;;;16.80;99.90;;;;;;5076641;28;20029;-72
2022/07/31 01:54:17;;;;;;;1.55;0.80;;;16.80;99.90;;;;;;5074969;28;20089;-73
2022/07/31 01:56:48;;;;;;;1.63;0.57;;;16.90;99.90;;;;;;5076415;28;20044;-71
2022/07/31 01:59:18;;;;;;;1.98;0.80;;;17.10;99.90;;;;;;5075046;28;20025;-72
2022/07/31 02:01:46;;;;;;;0.98;0.65;;;17.10;99.90;;;;;;5075192;28;20032;-71
2022/07/31 02:04:15;;;;;;;2.33;0.90;;;16.90;99.90;;;;;;5074864;28;20052;-73
2022/07/31 02:06:46;;;;;;;1.77;0.80;;;17.00;99.90;;;;;;5076242;28;20029;-72
2022/07/31 02:09:14;;;;;;;2.03;0.85;;;17.30;99.90;;;;;;5074766;28;20040;-71
2022/07/31 02:11:41;;;;;;;2.13;0.90;;;17.50;99.90;;;;;;5076024;28;20017;-72
2022/07/31 02:14:11;;;;;;;2.20;1.08;;;17.60;99.90;;;;;;5075748;28;20099;-71
2022/07/31 02:16:39;;;;;;;2.83;0.82;;;17.70;99.90;;;;;;5058296;28;20031;-73
2022/07/31 02:19:10;;;;;;;3.05;1.00;;;17.90;99.90;;;;;;5074411;28;20021;-71
2022/07/31 02:21:37;;;;;;;1.58;0.80;;;18.00;99.90;;;;;;5074499;28;20381;-71
2022/07/31 02:24:05;;;;;;;1.85;1.00;;;18.00;98.70;;;;;;5075639;28;20025;-71
2022/07/31 02:26:36;;;;;;;2.35;0.95;;;18.10;99.40;;;;;;5074340;28;20392;-70
2022/07/31 02:29:06;;;;;;;3.28;1.02;;;18.00;98.70;;;;;;5074544;28;20111;-72
2022/07/31 02:31:34;;;;;;;1.83;0.90;;;17.90;98.80;;;;;;5075515;28;20032;-70
2022/07/31 02:34:02;;;;;;;2.85;0.90;;;18.00;99.10;;;;;;5075513;28;20108;-72
2022/07/31 02:36:31;;;;;;;3.20;1.45;;;18.00;98.90;;;;;;5074117;28;20047;-72
2022/07/31 02:38:58;;;;;;;3.47;1.30;;;18.00;98.40;;;;;;5056579;28;20036;-72
2022/07/31 02:41:26;;;;;;;2.00;1.00;;;17.80;98.70;;;;;;5074146;28;20503;-71
2022/07/31 02:43:54;;;;;;;2.03;1.08;;;17.80;99.60;;;;;;5075374;28;20346;-73
2022/07/31 02:46:22;;;;;;;1.40;0.88;;;17.70;97.90;;;;;;5075531;28;20090;-72
2022/07/31 02:48:50;;;;;;;2.08;0.90;;;17.60;98.60;;;;;;5073971;28;20032;-72
2022/07/31 02:51:18;;;;;;;2.85;1.05;;;17.60;97.90;;;;;;5073907;28;20089;-72
2022/07/31 02:53:46;;;;;;;4.85;1.42;;;17.50;98.30;;;;;;5074082;28;20029;-72
2022/07/31 02:56:15;;;;;;;2.50;0.80;;;17.60;99.10;;;;;;5075074;28;20024;-71
2022/07/31 02:58:42;;;;;;;1.35;0.80;;;17.70;98.90;;;;;;5073863;28;20107;-72
2022/07/31 03:01:09;;;;;;;3.05;0.88;;;17.70;99.70;;;;;;5075488;28;20017;-72
2022/07/31 03:03:37;;;;;;;2.20;1.00;;;17.70;98.40;;;;;;5073898;28;20025;-71
2022/07/31 03:06:04;;;;;;;2.97;0.90;;;17.70;98.90;;;;;;5073673;28;20050;-72
2022/07/31 03:08:31;;;;;;;2.85;1.20;;;17.80;98.90;;;;;;5075062;28;20016;-72
2022/07/31 03:10:59;;;;;;;1.80;0.85;;;18.00;98.90;;;;;;5075133;28;20103;-71
2022/07/31 03:13:29;;;;;;;3.42;1.10;;;18.00;98.80;;;;;;5074937;28;20083;-72
2022/07/31 03:15:58;;;;;;;2.55;1.13;;;18.00;99.10;;;;;;5074939;28;20388;-72
2022/07/31 03:18:27;;;;;;;1.90;0.93;;;18.00;99.20;;;;;;5074986;28;20021;-71
2022/07/31 03:20:57;;;;;;;3.33;0.80;;;18.10;98.60;;;;;;5073570;28;20119;-72
2022/07/31 03:23:34;;;;;;;2.47;0.80;;;18.00;98.90;;;;;;5073541;28;20582;-73
2022/07/31 03:26:03;;;;;;;3.70;0.93;;;17.90;98.80;;;;;;5073407;28;20472;-72
2022/07/31 03:28:32;;;;;;;3.90;1.10;;;17.90;98.20;;;;;;5074492;28;20052;-72
2022/07/31 03:31:00;;;;;;;2.85;1.00;;;17.90;98.30;;;;;;5074485;28;20380;-72
2022/07/31 03:33:27;;;;;;;2.60;1.02;;;17.90;98.70;;;;;;5074576;28;20025;-72
2022/07/31 03:35:56;;;;;;;1.40;0.70;;;18.10;99.40;;;;;;5073172;28;20039;-73
2022/07/31 03:38:24;;;;;;;2.65;1.00;;;18.30;98.80;;;;;;5040335;28;20094;-72
2022/07/31 03:40:52;;;;;;;2.22;0.80;;;18.30;99.00;;;;;;5074286;28;20104;-73
2022/07/31 03:43:22;;;;;;;1.70;0.70;;;18.20;98.50;;;;;;5056703;28;20060;-72
2022/07/31 03:45:51;;;;;;;3.63;0.98;;;18.10;98.30;;;;;;5074201;28;20070;-71
2022/07/31 03:48:18;;;;;;;3.03;1.13;;;18.00;98.90;;;;;;5072947;28;20028;-72
2022/07/31 03:50:45;;;;;;;2.95;0.88;;;17.80;98.70;;;;;;5072732;28;20028;-72
2022/07/31 03:53:13;;;;;;;1.42;0.90;;;17.90;98.90;;;;;;5073921;28;20048;-72
2022/07/31 03:55:43;;;;;;;2.35;1.08;;;18.00;99.30;;;;;;5072814;28;20078;-72
2022/07/31 03:58:12;;;;;;;3.58;1.10;;;18.10;99.20;;;;;;5074723;28;20017;-72
2022/07/31 04:00:39;;;;;;;3.42;0.93;;;18.20;99.10;;;;;;5072623;28;20495;-72
2022/07/31 04:03:09;;;;;;;2.30;0.70;;;18.40;99.10;;;;;;5072647;28;20020;-72
2022/07/31 04:05:38;;;;;;;1.73;0.75;;;18.40;98.80;;;;;;5074329;28;20055;-72
2022/07/31 04:08:07;;;;;;;1.77;1.00;;;18.30;99.20;;;;;;5072576;28;20025;-72
2022/07/31 04:10:37;;;;;;;1.67;0.75;;;18.40;98.30;;;;;;5072481;28;20028;-72
2022/07/31 04:13:05;;;;;;;2.55;0.82;;;18.30;99.50;;;;;;5072472;28;20366;-72
2022/07/31 04:15:33;;;;;;;1.77;0.90;;;18.10;98.60;;;;;;5072400;28;20109;-73
2022/07/31 04:18:00;;;;;;;2.95;0.90;;;18.00;99.90;;;;;;5072209;28;20040;-73
2022/07/31 04:20:28;;;;;;;2.22;0.75;;;17.90;99.40;;;;;;5072952;28;20055;-72
2022/07/31 04:22:55;;;;;;;3.53;0.90;;;17.90;99.90;;;;;;5073496;28;20046;-72
2022/07/31 04:25:22;;;;;;;2.65;0.63;;;17.90;99.90;;;;;;5074068;28;20012;-73
2022/07/31 04:27:50;;;;;;;2.45;1.00;;;17.70;99.90;;;;;;5072200;28;20031;-73
2022/07/31 04:30:17;;;;;;;2.47;0.82;;;17.50;99.90;;;;;;5073590;28;20042;-73
2022/07/31 04:32:44;;;;;;;2.58;0.88;;;17.50;99.90;;;;;;5072132;28;20027;-73
2022/07/31 04:35:12;;;;;;;3.55;1.00;;;17.40;99.90;;;;;;5073269;28;20028;-72
2022/07/31 04:37:39;;;;;;;2.55;0.90;;;17.30;99.90;;;;;;5073356;28;20039;-72
2022/07/31 04:40:07;;;;;;;3.17;1.10;;;17.30;99.90;;;;;;5073576;28;20021;-72
2022/07/31 04:42:35;;;;;;;2.35;0.82;;;17.40;99.90;;;;;;5072186;28;20021;-73
2022/07/31 04:45:02;;;;;;;2.03;1.10;;;17.40;99.90;;;;;;5071953;28;20028;-72
2022/07/31 04:47:35;;;;;;;2.75;0.88;;;17.50;99.90;;;;;;5073133;28;20047;-71
2022/07/31 04:50:08;;;;;;;4.25;0.90;;;17.50;99.90;;;;;;5073330;28;20020;-71
2022/07/31 04:52:35;;;;;;;4.15;1.00;;;17.40;99.90;;;;;;5072837;28;20044;-71
2022/07/31 04:55:03;;;;;;;1.65;0.85;;;17.50;99.90;;;;;;5071820;28;20029;-71
2022/07/31 04:57:31;;;;;;;2.20;0.70;;;17.50;99.90;;;;;;5071910;28;20058;-71
2022/07/31 04:59:58;;;;;;;2.63;0.90;;;17.40;99.90;;;;;;5071645;28;20021;-72
2022/07/31 05:02:25;;;;;;;1.48;0.73;;;17.40;99.90;;;;;;5073324;28;20028;-71
2022/07/31 05:04:53;;;;;;;3.05;1.05;;;17.40;99.90;;;;;;5071685;28;20025;-73
2022/07/31 05:07:22;;;;;;;2.13;0.90;;;17.40;99.90;;;;;;5071663;28;20028;-73
2022/07/31 05:09:49;;;;;;;3.38;1.50;;;17.40;99.90;;;;;;5071705;28;20028;-73
2022/07/31 05:12:17;;;;;;;3.08;0.80;;;17.40;99.90;;;;;;5071677;28;20070;-72
2022/07/31 05:14:44;;;;;;;2.13;1.13;;;17.40;99.90;;;;;;5054869;28;20033;-72
2022/07/31 05:17:12;;;;;;;3.40;1.10;;;17.30;99.90;;;;;;5073012;28;20021;-72
2022/07/31 05:19:39;;;;;;;2.38;1.00;;;17.30;99.90;;;;;;5055207;28;20078;-72
2022/07/31 05:22:06;;;;;;;2.42;0.95;;;17.30;99.90;;;;;;5072892;28;20472;-72
2022/07/31 05:24:34;;;;;;;1.58;0.80;;;17.30;99.90;;;;;;5072839;28;20028;-72
2022/07/31 05:27:02;;;;;;;2.15;0.88;;;17.30;99.90;;;;;;5054971;28;20029;-73
2022/07/31 05:29:33;;;;;;;1.65;0.75;;;17.20;99.90;;;;;;5072815;28;20031;-72
2022/07/31 05:32:01;;;;;;;2.95;0.90;;;17.20;99.90;;;;;;5071773;28;20079;-72
2022/07/31 05:34:29;;;;;;;2.60;0.90;;;17.20;99.90;;;;;;5072853;28;20060;-73
2022/07/31 05:36:59;;;;;;;4.45;1.20;;;17.20;99.90;;;;;;5071646;28;20032;-73
2022/07/31 05:39:27;;;;;;;4.07;1.08;;;17.10;99.90;;;;;;5071456;28;20059;-72
2022/07/31 05:41:55;;;;;;;1.98;0.82;;;17.00;99.90;;;;;;5072655;28;20025;-71
2022/07/31 05:44:23;;;;;;;3.67;1.02;;;16.90;99.90;;;;;;5054384;28;20078;-71
2022/07/31 05:46:50;;;;;;;1.60;0.90;;;16.80;99.90;;;;;;5071289;28;20020;-71
2022/07/31 05:49:18;;;;;;;3.00;0.93;;;16.80;99.90;;;;;;5071321;28;20032;-71
2022/07/31 05:51:46;;;;;;;2.83;1.05;;;16.60;99.90;;;;;;5072399;28;20041;-73
2022/07/31 05:54:13;;;;;;;2.15;1.08;;;16.60;99.90;;;;;;5071207;28;20039;-71
2022/07/31 05:56:43;;;;;;;3.65;1.13;;;16.50;99.90;;;;;;5072705;28;20487;-72
2022/07/31 05:59:14;;;;;;;2.85;1.23;;;16.50;99.90;;;;;;5072457;28;20401;-72
2022/07/31 06:01:42;;;;;;;3.15;2.15;;;16.50;99.90;;;;;;5071429;28;20028;-72
2022/07/31 06:04:10;;;;;;;3.95;1.70;;;16.50;99.90;;;;;;5072814;28;20469;-72
2022/07/31 06:06:40;;;;;;;1.88;1.10;;;16.30;99.90;;;;;;5072547;28;20028;-73
2022/07/31 06:09:08;;;;;;;2.38;1.20;;;16.30;99.90;;;;;;5054724;28;20029;-72
2022/07/31 06:11:35;;;;;;;2.78;1.10;;;16.20;99.90;;;;;;5072475;28;20024;-72
2022/07/31 06:14:03;;;;;;;5.10;1.70;;;16.10;99.90;;;;;;5075370;28;20112;-72
2022/07/31 06:16:30;;;;;;;1.92;1.52;;;16.00;99.90;;;;;;5074741;28;20452;-73
2022/07/31 06:18:57;;;;;;;3.22;1.40;;;16.00;99.90;;;;;;5074693;28;20116;-72
2022/07/31 06:21:24;;;;;;;2.33;1.30;;;15.90;99.90;;;;;;5074516;28;20025;-72
2022/07/31 06:23:52;;;;;;;2.58;1.10;;;15.90;99.90;;;;;;5075950;28;20020;-71
2022/07/31 06:26:19;;;;;;;1.60;1.10;;;15.80;99.90;;;;;;5076147;28;20026;-73
2022/07/31 06:28:46;;;;;;;2.60;1.50;;;15.80;99.90;;;;;;5074588;28;20085;-72
2022/07/31 06:31:18;;;;;;;3.03;2.20;;;15.70;99.90;;;;;;5075911;28;20028;-72
2022/07/31 06:33:46;;;;;;;3.10;2.10;;;15.60;99.90;;;;;;5075618;28;20027;-70
2022/07/31 06:36:13;;;;;;;3.45;2.00;;;15.60;99.90;;;;;;5074211;28;20020;-71
2022/07/31 06:38:41;;;;;;;3.83;3.05;;;15.50;99.90;;;;;;5074284;28;20107;-70
2022/07/31 06:41:08;;;;;;;3.88;2.85;;;15.50;99.90;;;;;;5075570;28;20099;-70
2022/07/31 06:43:35;;;;;;;3.20;2.25;;;15.40;99.90;;;;;;5074205;28;20066;-71
2022/07/31 06:46:03;;;;;;;3.80;1.77;;;15.40;99.90;;;;;;5075463;28;20494;-69
2022/07/31 06:48:30;;;;;;;3.00;2.03;;;15.30;99.90;;;;;;5075424;28;20045;-70
2022/07/31 06:50:57;;;;;;;3.80;2.05;;;15.30;99.90;;;;;;5075398;28;20162;-70
2022/07/31 06:53:25;;;;;;;3.05;1.77;;;15.20;99.90;;;;;;5073778;28;20040;-70
2022/07/31 06:55:52;;;;;;;3.20;2.17;;;15.20;99.90;;;;;;5075606;28;20381;-70
2022/07/31 06:58:20;;;;;;;3.20;2.13;;;15.20;99.90;;;;;;5075220;28;20013;-70
2022/07/31 07:00:47;;;;;;;3.45;2.15;;;15.10;99.90;;;;;;5075198;28;20024;-70
2022/07/31 07:03:14;;;;;;;3.20;2.38;;;15.00;99.90;;;;;;5073908;28;20078;-70
2022/07/31 07:05:43;;;;;;;3.90;1.92;;;14.90;99.90;;;;;;5075059;28;20021;-70
2022/07/31 07:08:10;;;;;;;3.22;1.90;;;14.90;99.90;;;;;;5073735;28;20031;-70
2022/07/31 07:10:38;;;;;;;4.10;2.05;;;14.80;99.90;;;;;;5075429;28;20024;-69
2022/07/31 07:13:05;;;;;;;3.13;2.20;;;14.80;99.90;;;;;;5073603;28;20020;-69
2022/07/31 07:15:33;;;;;;;2.25;1.58;;;14.70;99.90;;;;;;5075087;28;20491;-71
2022/07/31 07:18:00;;;;;;;3.85;2.05;;;14.70;99.90;;;;;;5056869;28;20485;-69
2022/07/31 07:20:27;;;;;;;4.65;1.90;;;14.60;99.90;;;;;;5073357;28;20020;-69
2022/07/31 07:22:55;;;;;;;3.55;1.73;;;14.60;99.90;;;;;;5073226;28;20020;-70
2022/07/31 07:25:22;;;;;;;2.13;1.52;;;14.50;99.90;;;;;;5074440;28;20047;-69
2022/07/31 07:27:50;;;;;;;4.28;2.05;;;14.50;99.90;;;;;;5073227;28;20025;-69
2022/07/31 07:30:17;;;;;;;2.10;1.90;;;14.40;99.90;;;;;;5074604;28;20103;-69
2022/07/31 07:32:45;;;;;;;2.53;1.90;;;14.40;99.90;;;;;;5074843;28;20107;-70
2022/07/31 07:35:12;;;;;;;3.67;2.10;;;14.40;99.90;;;;;;5056845;28;20028;-70
2022/07/31 07:37:41;;;;;;;3.60;1.75;;;14.30;99.90;;;;;;5074356;28;20021;-70
2022/07/31 07:40:10;;;;;;;2.47;1.85;;;14.30;99.90;;;;;;5074482;28;20472;-70
2022/07/31 07:42:37;;;;;;;3.90;2.03;;;14.20;99.90;;;;;;5073203;28;20088;-70
2022/07/31 07:45:05;;;;;;;2.92;1.67;;;14.30;99.90;;;;;;5074457;28;20024;-69
2022/07/31 07:47:33;;;;;;;4.43;2.00;;;14.30;99.90;;;;;;5073350;28;20020;-71
2022/07/31 07:50:00;;;;;;;3.33;1.70;;;14.30;99.90;;;;;;5073108;28;20099;-71
2022/07/31 07:52:27;;;;;;;3.78;2.17;;;14.30;99.90;;;;;;5074336;28;20049;-70
2022/07/31 07:54:55;;;;;;;3.72;1.77;;;14.30;99.90;;;;;;5073965;28;20103;-72
2022/07/31 07:57:23;;;;;;;4.03;1.90;;;14.20;99.90;;;;;;5074069;28;20070;-72
2022/07/31 07:59:50;;;;;;;3.90;2.00;;;14.30;99.90;;;;;;5074099;28;20048;-72
2022/07/31 08:02:18;;;;;;;3.53;2.25;;;14.20;99.90;;;;;;5072899;28;20052;-74
2022/07/31 08:04:47;;;;;;;2.70;2.20;;;14.20;99.90;;;;;;5056620;28;20059;-73
2022/07/31 08:07:14;;;;;;;4.22;2.70;;;14.20;99.90;;;;;;5072723;28;20032;-72
2022/07/31 08:09:41;;;;;;;9.02;6.45;;;14.20;99.90;;;;;;5072584;28;20461;-73
2022/07/31 08:12:09;;;;;;;9.88;8.55;;;14.20;99.90;;;;;;5073886;28;20048;-73
2022/07/31 08:14:36;;;;;;;8.60;5.35;;;14.10;99.90;;;;;;5073732;28;20055;-72
2022/07/31 08:17:11;;;;;;;5.43;3.65;;;14.20;99.90;;;;;;5073804;28;20047;-72
2022/07/31 08:19:39;;;;;;;7.65;3.55;;;14.10;99.90;;;;;;5073956;28;20389;-72
2022/07/31 08:22:07;;;;;;;5.32;3.97;;;14.00;99.90;;;;;;5073832;28;20070;-72
2022/07/31 08:24:34;;;;;;;5.25;3.45;;;13.90;99.90;;;;;;5072372;28;20093;-72
2022/07/31 08:29:47;;;;;;;4.53;3.63;;;13.90;99.90;;;;;;5073909;28;20027;-72
2022/07/31 08:32:14;;;;;;;5.18;3.20;;;13.90;99.90;;;;;;5072300;28;20044;-72
2022/07/31 08:34:43;;;;;;;5.32;2.85;;;13.80;99.90;;;;;;5073309;28;20034;-72
2022/07/31 08:37:10;;;;;;;5.55;3.50;;;13.80;99.90;;;;;;5072070;28;20115;-71
2022/07/31 08:39:37;;;;;;;6.50;3.63;;;13.70;99.90;;;;;;5073589;28;20052;-72
2022/07/31 08:42:09;;;;;;;6.55;3.70;;;13.70;99.90;;;;;;5073565;28;20108;-68
2022/07/31 08:44:38;;;;;;;3.90;3.10;;;13.70;99.90;;;;;;5072072;28;20389;-68
2022/07/31 08:47:10;;;;;;;3.95;2.92;;;13.70;99.90;;;;;;5073300;28;20048;-68
2022/07/31 08:49:42;;;;;;;6.35;2.95;;;13.70;99.90;;;;;;5073310;28;20358;-68
2022/07/31 08:52:11;;;;;;;4.90;3.40;;;13.70;99.90;;;;;;5073103;28;20048;-68
2022/07/31 08:54:43;;;;;;;4.85;2.90;;;13.70;99.90;;;;;;5073144;28;20033;-68
2022/07/31 08:57:15;;;;;;;5.13;3.25;;;13.80;99.90;;;;;;5072314;28;20094;-68
2022/07/31 08:59:43;;;;;;;4.40;2.80;;;13.70;99.90;;;;;;5073205;28;20023;-68
2022/07/31 09:02:11;;;;;;;5.95;4.22;;;13.70;99.90;;;;;;5073730;28;20021;-68
2022/07/31 09:04:39;;;;;;;5.18;4.45;;;13.70;99.90;;;;;;5073150;28;20024;-68
2022/07/31 09:07:13;;;;;;;5.93;4.60;;;13.70;99.90;;;;;;5073103;28;20021;-71
2022/07/31 09:09:43;;;;;;;5.78;4.70;;;13.60;99.90;;;;;;5071815;28;20031;-69
2022/07/31 09:12:14;;;;;;;7.03;4.50;;;13.60;99.90;;;;;;5072958;28;20028;-70
2022/07/31 09:14:48;;;;;;;5.22;3.35;;;13.60;99.90;;;;;;5073336;28;20020;-72
2022/07/31 09:17:29;;;;;;;4.60;3.50;;;13.50;99.90;;;;;;5072943;28;20032;-71
2022/07/31 09:19:57;;;;;;;6.55;4.55;;;13.50;99.90;;;;;;5072942;28;20024;-70
2022/07/31 09:22:27;;;;;;;7.75;4.40;;;13.50;99.90;;;;;;5072933;28;20108;-71
2022/07/31 09:25:07;;;;;;;4.53;3.85;;;13.50;99.90;;;;;;5071978;28;20029;-71
2022/07/31 09:27:34;;;;;;;5.13;4.17;;;13.50;99.90;;;;;;5055483;28;20037;-72
2022/07/31 09:30:03;;;;;;;7.20;4.55;;;13.40;99.90;;;;;;5071717;28;20040;-71
2022/07/31 09:32:32;;;;;;;6.07;4.53;;;13.30;99.90;;;;;;5072970;28;20393;-71
2022/07/31 09:35:10;;;;;;;4.25;3.42;;;13.30;99.90;;;;;;5073216;28;20027;-73
2022/07/31 09:37:39;;;;;;;4.13;3.05;;;13.20;99.90;;;;;;5071806;28;20115;-72
2022/07/31 09:40:08;;;;;;;2.97;2.67;;;13.20;99.90;;;;;;5073571;28;20021;-74
2022/07/31 09:42:44;;;;;;;3.67;2.72;;;13.10;99.90;;;;;;5071802;28;20078;-72
2022/07/31 09:45:20;;;;;;;4.28;2.70;;;13.20;99.90;;;;;;5072980;28;20024;-76
2022/07/31 09:48:01;;;;;;;4.20;2.33;;;13.10;99.90;;;;;;5058080;28;20066;-72
2022/07/31 09:50:32;;;;;;;3.45;2.65;;;13.10;99.90;;;;;;5076786;28;20033;-74
2022/07/31 09:53:00;;;;;;;3.67;2.20;;;13.10;99.90;;;;;;5076825;28;20045;-73
2022/07/31 09:55:28;;;;;;;4.45;2.42;;;13.20;99.90;;;;;;5076630;28;20391;-72
2022/07/31 09:58:00;;;;;;;4.18;2.60;;;13.20;99.90;;;;;;5076413;28;20021;-73
2022/07/31 10:00:28;;;;;;;4.90;2.45;;;13.20;99.90;;;;;;5076577;28;20027;-73
2022/07/31 10:02:56;;;;;;;4.32;2.45;;;13.20;99.90;;;;;;5075490;28;20099;-73
2022/07/31 10:05:26;;;;;;;4.18;3.08;;;13.20;99.90;;;;;;5076865;28;20025;-74
2022/07/31 10:07:58;;;;;;;3.40;2.47;;;13.30;99.90;;;;;;5076600;28;20392;-74
2022/07/31 10:10:28;;;;;;;4.90;2.00;;;13.30;99.90;;;;;;5074895;28;20028;-73
2022/07/31 10:12:59;;;;;;;3.85;1.83;;;13.30;99.90;;;;;;5076347;28;20025;-73
2022/07/31 10:15:28;;;;;;;3.60;1.80;;;13.30;99.90;;;;;;5076222;28;20064;-74
2022/07/31 10:17:56;;;;;;;3.13;1.58;;;13.30;99.90;;;;;;5058220;28;20032;-73
2022/07/31 10:20:26;;;;;;;3.05;1.40;;;13.30;99.90;;;;;;5058461;28;20059;-73
2022/07/31 10:23:04;;;;;;;3.78;1.90;;;13.30;99.90;;;;;;5074548;28;20025;-71
2022/07/31 10:25:32;;;;;;;3.97;1.70;;;13.40;99.90;;;;;;5074850;28;20021;-74
2022/07/31 10:28:00;;;;;;;3.45;1.90;;;13.40;99.90;;;;;;5076066;28;20424;-73
2022/07/31 10:30:28;;;;;;;4.70;1.75;;;13.40;99.90;;;;;;5074690;28;20082;-72
2022/07/31 10:32:57;;;;;;;3.25;1.80;;;13.40;99.90;;;;;;5075856;28;20016;-73
2022/07/31 10:35:26;;;;;;;2.22;1.42;;;13.40;99.90;;;;;;5041735;28;20477;-74
2022/07/31 10:38:14;;;;;;;3.25;1.73;;;13.40;99.90;;;;;;5075907;28;20032;-74
2022/07/31 10:41:02;;;;;;;2.85;1.45;;;13.40;99.90;;;;;;5075754;28;20485;-73
2022/07/31 10:43:43;;;;;;;4.65;1.70;;;13.40;99.90;;;;;;5075715;28;20425;-73
2022/07/31 10:46:11;;;;;;;3.15;1.80;;;13.40;99.90;;;;;;5075720;28;20028;-73
2022/07/31 10:48:49;;;;;;;3.50;1.80;;;13.40;99.90;;;;;;5074278;28;20025;-73
2022/07/31 10:51:16;;;;;;;4.25;2.00;;;13.50;99.90;;;;;;5074132;28;20393;-73
2022/07/31 10:53:54;;;;;;;2.83;1.58;;;13.50;99.90;;;;;;5074137;28;20040;-72
2022/07/31 10:56:22;;;;;;;3.38;2.08;;;13.50;99.90;;;;;;5057974;28;20056;-73
2022/07/31 10:58:57;;;;;;;3.80;2.30;;;13.50;99.90;;;;;;5056726;28;20036;-72
2022/07/31 11:01:25;;;;;;;4.22;1.98;;;13.50;99.90;;;;;;5074104;28;20043;-73
2022/07/31 11:04:10;;;;;;;4.57;1.80;;;13.50;99.90;;;;;;5075875;28;20032;-73
2022/07/31 11:06:47;;;;;;;2.78;1.40;;;13.50;99.90;;;;;;5075653;28;20435;-72
2022/07/31 11:09:23;;;;;;;3.50;1.70;;;13.40;99.90;;;;;;5073909;28;20043;-72
2022/07/31 11:11:50;;;;;;;2.33;1.60;;;13.40;99.90;;;;;;5075469;28;20036;-72
2022/07/31 11:14:18;;;;;;;4.25;2.10;;;13.40;99.90;;;;;;5075289;28;20484;-72
2022/07/31 11:16:54;;;;;;;2.95;1.70;;;13.40;99.90;;;;;;5075010;28;20536;-72
2022/07/31 11:19:22;;;;;;;3.10;1.75;;;13.40;99.90;;;;;;5074876;28;20020;-72
2022/07/31 11:21:49;;;;;;;3.20;2.08;;;13.30;99.90;;;;;;5074978;28;20104;-72
2022/07/31 11:24:18;;;;;;;3.38;1.70;;;13.30;99.90;;;;;;5073572;28;20029;-72
2022/07/31 11:26:52;;;;;;;4.68;1.52;;;13.30;99.90;;;;;;5073596;28;20446;-72
2022/07/31 11:29:31;;;;;;;4.20;1.60;;;13.30;99.90;;;;;;5075171;28;20070;-71
2022/07/31 11:32:16;;;;;;;3.15;1.52;;;13.30;99.90;;;;;;5075052;28;20044;-72
2022/07/31 11:34:48;;;;;;;2.97;1.58;;;13.30;99.90;;;;;;5074857;28;20028;-72
2022/07/31 11:37:22;;;;;;;2.95;1.65;;;13.30;99.90;;;;;;5073332;28;20477;-72
2022/07/31 11:39:54;;;;;;;1.60;1.35;;;13.30;99.90;;;;;;5073172;28;20025;-72
2022/07/31 11:42:23;;;;;;;2.33;1.50;;;13.30;99.90;;;;;;5073370;28;20059;-70
2022/07/31 11:44:51;;;;;;;4.18;1.85;;;13.30;99.90;;;;;;5074517;28;20031;-70
2022/07/31 11:47:18;;;;;;;2.63;1.30;;;13.30;99.90;;;;;;5073154;28;20476;-70
2022/07/31 11:49:46;;;;;;;3.90;1.67;;;13.30;99.90;;;;;;5074362;28;20108;-72
2022/07/31 11:52:13;;;;;;;2.80;1.60;;;13.40;99.90;;;;;;5074217;28;20102;-72
2022/07/31 11:54:42;;;;;;;4.10;1.60;;;13.40;99.90;;;;;;5074282;28;20078;-72
2022/07/31 11:57:10;;;;;;;2.75;1.45;;;13.30;99.90;;;;;;5074280;28;20032;-73
2022/07/31 11:59:40;;;;;;;3.60;1.70;;;13.30;99.90;;;;;;5072987;28;20063;-73
2022/07/31 12:02:09;;;;;;;3.28;1.40;;;13.30;99.90;;;;;;5074813;28;20074;-73
2022/07/31 12:04:37;;;;;;;3.80;1.42;;;13.30;99.90;;;;;;5073076;28;20029;-72
2022/07/31 12:07:10;;;;;;;2.90;1.60;;;13.20;99.90;;;;;;5072895;28;20037;-73
2022/07/31 12:09:38;;;;;;;2.78;1.30;;;13.20;99.90;;;;;;5073708;28;20021;-73
2022/07/31 12:12:07;;;;;;;1.80;1.25;;;13.10;99.90;;;;;;5055710;28;20082;-74
2022/07/31 12:14:39;;;;;;;4.47;1.63;;;13.10;99.90;;;;;;5074108;28;20147;-73
2022/07/31 12:17:19;;;;;;;2.88;1.50;;;13.10;99.90;;;;;;5072763;28;20503;-73
2022/07/31 12:19:47;;;;;;;5.75;1.65;;;13.00;99.90;;;;;;5074342;28;20027;-74
2022/07/31 12:22:17;;;;;;;2.83;1.38;;;13.00;99.90;;;;;;5072592;28;20504;-73
2022/07/31 12:24:46;;;;;;;4.10;1.50;;;13.00;99.90;;;;;;5055764;28;20028;-73
2022/07/31 12:27:17;;;;;;;2.53;1.60;;;12.90;99.90;;;;;;5073954;28;20108;-75
2022/07/31 12:29:46;;;;;;;3.53;1.35;;;12.90;99.90;;;;;;5073901;28;20028;-73
2022/07/31 12:32:27;;;;;;;2.78;1.50;;;12.90;99.90;;;;;;5073911;28;20476;-73
2022/07/31 12:35:03;;;;;;;3.72;1.58;;;12.90;99.90;;;;;;5072324;28;20030;-72
2022/07/31 12:37:47;;;;;;;2.42;1.75;;;12.90;99.90;;;;;;5073580;28;20056;-72
2022/07/31 12:40:27;;;;;;;3.38;1.50;;;12.80;99.90;;;;;;5073732;28;20024;-73
2022/07/31 12:42:58;;;;;;;4.18;1.52;;;12.80;99.90;;;;;;5072828;28;20032;-72
2022/07/31 12:45:33;;;;;;;3.03;1.52;;;12.70;99.90;;;;;;5072215;28;20499;-73
2022/07/31 12:48:01;;;;;;;4.60;1.48;;;12.70;99.90;;;;;;5072400;28;20036;-74
2022/07/31 12:50:30;;;;;;;2.70;1.20;;;12.60;99.90;;;;;;5073548;28;20095;-73
2022/07/31 12:53:03;;;;;;;3.38;1.27;;;12.60;99.90;;;;;;5071811;28;20045;-72
2022/07/31 12:55:33;;;;;;;4.55;1.40;;;12.60;99.90;;;;;;5073237;28;20023;-73
2022/07/31 12:58:00;;;;;;;3.70;1.45;;;12.60;99.90;;;;;;5073610;28;20103;-72
2022/07/31 13:00:28;;;;;;;2.30;1.40;;;12.50;99.90;;;;;;5073545;28;20082;-73
2022/07/31 13:02:57;;;;;;;3.88;1.50;;;12.50;99.90;;;;;;5072026;28;20048;-72